createdAt,value
2019-05-20T00:01:19.592Z,11.60
2019-05-20T00:03:48.217Z,11.60
2019-05-20T00:06:16.740Z,11.60
2019-05-20T00:08:45.319Z,11.60
2019-05-20T00:11:13.918Z,11.60
2019-05-20T00:13:42.494Z,11.60
2019-05-20T00:16:11.113Z,11.50
2019-05-20T00:18:39.688Z,11.50
2019-05-20T00:21:08.645Z,11.50
2019-05-20T00:23:37.227Z,11.60
2019-05-20T00:26:05.960Z,11.50
2019-05-20T00:28:34.611Z,11.50
2019-05-20T00:31:03.188Z,11.50
2019-05-20T00:33:31.790Z,11.50
2019-05-20T00:36:00.534Z,11.50
2019-05-20T00:38:29.115Z,11.50
2019-05-20T00:40:57.711Z,11.50
2019-05-20T00:43:26.297Z,11.50
2019-05-20T00:45:54.883Z,11.50
2019-05-20T00:48:23.460Z,11.50
2019-05-20T00:50:52.092Z,11.50
2019-05-20T00:53:20.821Z,11.50
2019-05-20T00:55:49.770Z,11.50
2019-05-20T00:58:18.501Z,11.50
2019-05-20T01:00:47.151Z,11.50
2019-05-20T01:03:16.150Z,11.50
2019-05-20T01:05:44.806Z,11.50
2019-05-20T01:08:13.404Z,11.50
2019-05-20T01:10:41.975Z,11.50
2019-05-20T01:13:10.636Z,11.40
2019-05-20T01:15:39.517Z,11.50
2019-05-20T01:18:08.357Z,11.50
2019-05-20T01:20:37.046Z,11.50
2019-05-20T01:23:06.081Z,11.50
2019-05-20T01:25:34.732Z,11.50
2019-05-20T01:28:03.372Z,11.50
2019-05-20T01:30:32.021Z,11.50
2019-05-20T01:33:12.727Z,11.50
2019-05-20T01:35:30.828Z,11.50
2019-05-20T01:37:59.409Z,11.50
2019-05-20T01:40:27.966Z,11.50
2019-05-20T01:42:56.575Z,11.50
2019-05-20T01:45:25.257Z,11.50
2019-05-20T01:47:54.207Z,11.50
2019-05-20T01:50:22.850Z,11.50
2019-05-20T01:52:51.786Z,11.50
2019-05-20T01:55:20.359Z,11.50
2019-05-20T01:57:48.960Z,11.50
2019-05-20T02:00:17.682Z,11.50
2019-05-20T02:02:46.329Z,11.50
2019-05-20T02:05:14.997Z,11.50
2019-05-20T02:07:43.627Z,11.50
2019-05-20T02:10:12.619Z,11.40
2019-05-20T02:12:41.531Z,11.50
2019-05-20T02:15:15.348Z,11.50
2019-05-20T02:17:43.939Z,11.50
2019-05-20T02:20:13.116Z,11.50
2019-05-20T02:22:41.686Z,11.50
2019-05-20T02:25:10.526Z,11.50
2019-05-20T02:27:39.088Z,11.50
2019-05-20T02:30:11.245Z,11.50
2019-05-20T02:32:40.260Z,11.50
2019-05-20T02:35:09.295Z,11.50
2019-05-20T02:37:38.012Z,11.50
2019-05-20T02:40:08.277Z,11.50
2019-05-20T02:42:37.264Z,11.40
2019-05-20T02:45:09.453Z,11.40
2019-05-20T02:47:38.050Z,11.40
2019-05-20T02:50:07.170Z,11.40
2019-05-20T02:52:35.752Z,11.40
2019-05-20T02:55:06.765Z,11.40
2019-05-20T02:57:35.330Z,11.40
2019-05-20T03:00:08.404Z,11.40
2019-05-20T03:02:37.356Z,11.40
2019-05-20T03:05:06.863Z,11.40
2019-05-20T03:07:35.505Z,11.40
2019-05-20T03:10:06.316Z,11.40
2019-05-20T03:12:34.960Z,11.40
2019-05-20T03:15:05.422Z,11.50
2019-05-20T03:17:33.984Z,11.50
2019-05-20T03:20:02.643Z,11.40
2019-05-20T03:22:31.202Z,11.40
2019-05-20T03:24:59.793Z,11.40
2019-05-20T03:27:28.375Z,11.40
2019-05-20T03:29:57.251Z,11.30
2019-05-20T03:32:25.820Z,11.40
2019-05-20T03:34:59.943Z,11.30
2019-05-20T03:37:24.621Z,11.30
2019-05-20T03:39:53.292Z,11.30
2019-05-20T03:42:22.148Z,11.40
2019-05-20T03:44:50.751Z,11.40
2019-05-20T03:47:19.380Z,11.40
2019-05-20T03:49:48.093Z,11.30
2019-05-20T03:52:16.690Z,11.30
2019-05-20T03:54:45.289Z,11.30
2019-05-20T03:57:14.152Z,11.20
2019-05-20T03:59:42.723Z,11.30
2019-05-20T04:02:11.397Z,11.30
2019-05-20T04:04:39.976Z,11.30
2019-05-20T04:07:08.658Z,11.30
2019-05-20T04:09:37.237Z,11.30
2019-05-20T04:12:05.970Z,11.30
2019-05-20T04:14:34.543Z,11.30
2019-05-20T04:17:03.147Z,11.30
2019-05-20T04:19:31.716Z,11.30
2019-05-20T04:22:00.642Z,11.30
2019-05-20T04:24:29.222Z,11.30
2019-05-20T04:27:01.135Z,11.30
2019-05-20T04:29:29.777Z,11.30
2019-05-20T04:31:58.374Z,11.30
2019-05-20T04:34:26.999Z,11.40
2019-05-20T04:36:55.603Z,11.30
2019-05-20T04:39:24.248Z,11.40
2019-05-20T04:41:53.123Z,11.40
2019-05-20T04:44:21.781Z,11.40
2019-05-20T04:46:50.440Z,11.40
2019-05-20T04:49:19.013Z,11.40
2019-05-20T04:51:47.601Z,11.40
2019-05-20T04:54:16.193Z,11.40
2019-05-20T04:56:45.068Z,11.40
2019-05-20T04:59:13.637Z,11.40
2019-05-20T05:01:42.226Z,11.50
2019-05-20T05:04:11.137Z,11.40
2019-05-20T05:06:40.035Z,11.50
2019-05-20T05:09:09.034Z,11.40
2019-05-20T05:11:37.760Z,11.50
2019-05-20T05:14:06.476Z,11.50
2019-05-20T05:16:35.121Z,11.50
2019-05-20T05:19:03.854Z,11.50
2019-05-20T05:21:32.559Z,11.50
2019-05-20T05:24:01.505Z,11.50
2019-05-20T05:26:30.430Z,11.50
2019-05-20T05:28:59.457Z,11.50
2019-05-20T05:31:28.469Z,11.50
2019-05-20T05:33:57.063Z,11.50
2019-05-20T05:36:26.038Z,11.50
2019-05-20T05:38:54.627Z,11.50
2019-05-20T05:41:23.494Z,11.50
2019-05-20T05:43:52.100Z,11.50
2019-05-20T05:46:20.682Z,11.60
2019-05-20T05:48:49.301Z,11.50
2019-05-20T05:51:17.874Z,11.50
2019-05-20T05:53:46.382Z,11.50
2019-05-20T05:56:15.029Z,11.60
2019-05-20T05:58:43.975Z,11.60
2019-05-20T06:01:12.624Z,11.60
2019-05-20T06:03:41.228Z,11.70
2019-05-20T06:06:12.789Z,11.70
2019-05-20T06:08:40.449Z,11.80
2019-05-20T06:11:09.046Z,11.80
2019-05-20T06:13:37.599Z,11.90
2019-05-20T06:16:06.345Z,11.90
2019-05-20T06:18:35.321Z,12.00
2019-05-20T06:21:04.080Z,12.10
2019-05-20T06:23:32.941Z,12.20
2019-05-20T06:26:01.610Z,12.20
2019-05-20T06:28:30.163Z,12.30
2019-05-20T06:30:58.916Z,12.40
2019-05-20T06:33:27.542Z,12.50
2019-05-20T06:35:56.297Z,12.60
2019-05-20T06:38:35.518Z,12.60
2019-05-20T06:41:05.810Z,12.70
2019-05-20T06:43:34.726Z,12.70
2019-05-20T06:46:03.441Z,12.80
2019-05-20T06:48:32.030Z,12.80
2019-05-20T06:51:00.678Z,12.90
2019-05-20T06:53:29.318Z,13.00
2019-05-20T06:55:57.889Z,13.10
2019-05-20T06:58:26.564Z,13.10
2019-05-20T07:00:55.142Z,13.10
2019-05-20T07:03:23.730Z,13.10
2019-05-20T07:05:53.301Z,13.10
2019-05-20T07:08:21.887Z,13.00
2019-05-20T07:10:50.460Z,13.00
2019-05-20T07:13:19.056Z,13.00
2019-05-20T07:15:47.909Z,13.00
2019-05-20T07:18:16.518Z,13.00
2019-05-20T07:20:45.135Z,13.10
2019-05-20T07:23:13.712Z,13.10
2019-05-20T07:25:42.569Z,13.30
2019-05-20T07:28:11.155Z,13.40
2019-05-20T07:30:39.951Z,13.50
2019-05-20T07:33:08.607Z,13.50
2019-05-20T07:35:37.170Z,13.50
2019-05-20T07:38:05.768Z,13.50
2019-05-20T07:40:34.640Z,13.50
2019-05-20T07:43:03.728Z,13.50
2019-05-20T07:45:34.565Z,13.60
2019-05-20T07:48:05.369Z,13.70
2019-05-20T07:50:36.725Z,13.80
2019-05-20T07:53:06.847Z,13.90
2019-05-20T07:55:41.303Z,13.90
2019-05-20T07:58:10.833Z,13.80
2019-05-20T08:00:40.091Z,13.80
2019-05-20T08:03:09.173Z,13.70
2019-05-20T08:05:37.976Z,13.70
2019-05-20T08:08:06.701Z,13.70
2019-05-20T08:10:35.351Z,13.60
2019-05-20T08:13:04.067Z,13.60
2019-05-20T08:15:32.645Z,13.70
2019-05-20T08:18:01.230Z,13.70
2019-05-20T08:20:29.949Z,13.70
2019-05-20T08:22:58.571Z,13.70
2019-05-20T08:25:27.216Z,13.70
2019-05-20T08:27:56.181Z,13.70
2019-05-20T08:30:34.080Z,13.80
2019-05-20T08:33:02.989Z,13.80
2019-05-20T08:35:32.047Z,13.80
2019-05-20T08:38:00.829Z,13.80
2019-05-20T08:40:29.557Z,13.90
2019-05-20T08:42:58.285Z,14.00
2019-05-20T08:45:27.231Z,14.10
2019-05-20T08:47:55.959Z,14.30
2019-05-20T08:50:24.613Z,14.30
2019-05-20T08:52:53.363Z,14.30
2019-05-20T08:55:22.080Z,14.40
2019-05-20T08:57:50.807Z,14.60
2019-05-20T09:00:24.358Z,14.60
2019-05-20T09:02:53.370Z,14.70
2019-05-20T09:05:22.017Z,14.70
2019-05-20T09:08:02.075Z,14.70
2019-05-20T09:10:20.956Z,14.80
2019-05-20T09:12:49.537Z,14.70
2019-05-20T09:15:18.713Z,14.60
2019-05-20T09:17:47.447Z,14.60
2019-05-20T09:20:16.621Z,14.60
2019-05-20T09:22:45.156Z,14.50
2019-05-20T09:25:14.565Z,14.50
2019-05-20T09:27:43.472Z,14.50
2019-05-20T09:30:13.797Z,14.40
2019-05-20T09:32:43.315Z,14.30
2019-05-20T09:35:12.170Z,14.40
2019-05-20T09:37:40.822Z,14.30
2019-05-20T09:40:09.743Z,14.30
2019-05-20T09:42:40.739Z,14.30
2019-05-20T09:45:09.047Z,14.20
2019-05-20T09:47:38.379Z,14.20
2019-05-20T09:50:07.538Z,14.20
2019-05-20T09:52:36.196Z,14.20
2019-05-20T09:55:06.352Z,14.10
2019-05-20T09:57:34.977Z,14.20
2019-05-20T10:00:24.420Z,14.20
2019-05-20T10:02:53.380Z,14.20
2019-05-20T10:05:21.963Z,14.20
2019-05-20T10:07:50.537Z,14.20
2019-05-20T10:10:20.990Z,14.10
2019-05-20T10:12:49.641Z,14.20
2019-05-20T10:15:18.874Z,14.20
2019-05-20T10:17:47.426Z,14.30
2019-05-20T10:20:16.172Z,14.20
2019-05-20T10:22:44.769Z,14.30
2019-05-20T10:25:13.684Z,14.40
2019-05-20T10:27:42.261Z,14.50
2019-05-20T10:30:11.496Z,14.50
2019-05-20T10:32:40.538Z,14.50
2019-05-20T10:35:09.775Z,14.50
2019-05-20T10:37:38.479Z,14.60
2019-05-20T10:40:08.498Z,14.70
2019-05-20T10:42:36.992Z,14.80
2019-05-20T10:45:06.218Z,15.00
2019-05-20T10:47:35.600Z,15.20
2019-05-20T10:50:06.683Z,15.30
2019-05-20T10:52:35.384Z,15.50
2019-05-20T10:55:07.548Z,15.40
2019-05-20T10:57:36.194Z,15.50
2019-05-20T11:00:08.308Z,15.40
2019-05-20T11:02:37.084Z,15.30
2019-05-20T11:05:07.538Z,15.30
2019-05-20T11:07:36.128Z,15.30
2019-05-20T11:10:07.002Z,15.20
2019-05-20T11:12:35.762Z,15.20
2019-05-20T11:15:07.519Z,15.30
2019-05-20T11:17:36.247Z,15.30
2019-05-20T11:20:09.686Z,15.50
2019-05-20T11:22:38.375Z,15.60
2019-05-20T11:25:07.970Z,15.70
2019-05-20T11:27:36.642Z,15.80
2019-05-20T11:30:07.432Z,15.80
2019-05-20T11:32:36.511Z,15.80
2019-05-20T11:35:07.647Z,15.80
2019-05-20T11:37:36.392Z,15.80
2019-05-20T11:40:10.418Z,15.90
2019-05-20T11:42:39.385Z,16.00
2019-05-20T11:45:09.500Z,16.00
2019-05-20T11:47:38.582Z,16.10
2019-05-20T11:50:09.073Z,16.30
2019-05-20T11:52:37.844Z,16.40
2019-05-20T11:55:07.741Z,16.50
2019-05-20T11:57:36.722Z,16.70
2019-05-20T12:00:25.253Z,16.90
2019-05-20T12:02:54.187Z,17.00
2019-05-20T12:05:22.815Z,17.30
2019-05-20T12:07:51.764Z,17.70
2019-05-20T12:10:20.648Z,18.00
2019-05-20T12:12:49.212Z,18.20
2019-05-20T12:15:18.229Z,18.40
2019-05-20T12:17:46.807Z,18.50
2019-05-20T12:20:15.745Z,18.60
2019-05-20T12:22:44.600Z,18.70
2019-05-20T12:25:13.326Z,18.90
2019-05-20T12:27:41.826Z,19.10
2019-05-20T12:30:11.483Z,19.20
2019-05-20T12:32:40.089Z,19.30
2019-05-20T12:35:08.859Z,19.40
2019-05-20T12:37:56.747Z,19.60
2019-05-20T12:40:25.331Z,20.00
2019-05-20T12:42:53.910Z,20.10
2019-05-20T12:45:22.498Z,20.10
2019-05-20T12:47:51.380Z,20.20
2019-05-20T12:50:20.352Z,19.90
2019-05-20T12:52:48.930Z,19.70
2019-05-20T12:55:18.239Z,19.40
2019-05-20T12:57:46.813Z,19.30
2019-05-20T13:00:17.132Z,19.10
2019-05-20T13:02:45.730Z,18.90
2019-05-20T13:05:15.653Z,18.70
2019-05-20T13:07:44.231Z,18.50
2019-05-20T13:10:28.018Z,18.30
2019-05-20T13:12:43.572Z,18.20
2019-05-20T13:15:14.415Z,18.20
2019-05-20T13:17:44.983Z,18.10
2019-05-20T13:20:13.595Z,18.10
2019-05-20T13:22:42.210Z,18.10
2019-05-20T13:25:11.073Z,17.90
2019-05-20T13:27:39.712Z,17.80
2019-05-20T13:30:10.046Z,17.80
2019-05-20T13:32:38.680Z,17.60
2019-05-20T13:35:08.925Z,17.40
2019-05-20T13:37:37.959Z,17.30
2019-05-20T13:40:07.168Z,17.30
2019-05-20T13:42:35.998Z,17.20
2019-05-20T13:45:05.892Z,17.20
2019-05-20T13:47:34.475Z,17.40
2019-05-20T13:50:05.199Z,17.40
2019-05-20T13:52:33.787Z,17.30
2019-05-20T13:55:02.499Z,17.30
2019-05-20T13:57:31.263Z,17.40
2019-05-20T13:59:59.869Z,17.40
2019-05-20T14:02:28.533Z,17.30
2019-05-20T14:04:57.140Z,17.30
2019-05-20T14:07:26.015Z,17.30
2019-05-20T14:09:54.698Z,17.30
2019-05-20T14:12:23.257Z,17.20
2019-05-20T14:14:51.859Z,17.10
2019-05-20T14:17:20.451Z,17.00
2019-05-20T14:19:49.019Z,16.90
2019-05-20T14:22:17.653Z,16.70
2019-05-20T14:24:46.254Z,16.60
2019-05-20T14:27:14.844Z,16.50
2019-05-20T14:29:43.727Z,16.40
2019-05-20T14:32:12.232Z,16.30
2019-05-20T14:34:41.100Z,16.30
2019-05-20T14:37:09.675Z,16.20
2019-05-20T14:39:38.312Z,16.10
2019-05-20T14:42:06.955Z,16.10
2019-05-20T14:44:35.607Z,16.10
2019-05-20T14:47:04.259Z,16.00
2019-05-20T14:49:33.149Z,16.00
2019-05-20T14:52:01.801Z,15.80
2019-05-20T14:54:30.387Z,15.80
2019-05-20T14:56:59.110Z,15.60
2019-05-20T14:59:27.678Z,15.50
2019-05-20T15:01:56.405Z,15.40
2019-05-20T15:04:25.072Z,15.30
2019-05-20T15:06:53.753Z,15.20
2019-05-20T15:09:22.310Z,15.20
2019-05-20T15:11:51.251Z,15.20
2019-05-20T15:14:19.840Z,15.20
2019-05-20T15:16:48.583Z,15.20
2019-05-20T15:19:17.150Z,15.20
2019-05-20T15:21:45.751Z,15.10
2019-05-20T15:24:14.359Z,15.10
2019-05-20T15:26:43.104Z,14.90
2019-05-20T15:29:26.889Z,15.00
2019-05-20T15:31:42.078Z,14.90
2019-05-20T15:34:10.650Z,14.90
2019-05-20T15:36:39.605Z,14.80
2019-05-20T15:39:08.173Z,14.90
2019-05-20T15:41:37.969Z,14.90
2019-05-20T15:44:06.503Z,14.90
2019-05-20T15:46:35.162Z,14.80
2019-05-20T15:49:03.813Z,14.80
2019-05-20T15:51:32.376Z,14.80
2019-05-20T15:54:01.033Z,14.80
2019-05-20T15:56:29.675Z,14.80
2019-05-20T15:58:58.271Z,14.80
2019-05-20T16:01:26.827Z,14.70
2019-05-20T16:03:55.467Z,14.70
2019-05-20T16:06:24.484Z,14.60
2019-05-20T16:08:53.161Z,14.70
2019-05-20T16:11:21.828Z,14.70
2019-05-20T16:13:50.954Z,14.70
2019-05-20T16:16:19.649Z,14.80
2019-05-20T16:18:48.320Z,14.70
2019-05-20T16:21:16.963Z,14.70
2019-05-20T16:23:45.631Z,14.70
2019-05-20T16:26:14.292Z,14.60
2019-05-20T16:28:42.939Z,14.70
2019-05-20T16:31:11.696Z,14.70
2019-05-20T16:33:40.276Z,14.70
2019-05-20T16:36:08.866Z,14.60
2019-05-20T16:38:37.455Z,14.70
2019-05-20T16:41:06.452Z,14.80
2019-05-20T16:43:35.457Z,14.80
2019-05-20T16:46:04.111Z,14.80
2019-05-20T16:48:32.769Z,14.90
2019-05-20T16:51:01.415Z,14.90
2019-05-20T16:53:30.050Z,14.80
2019-05-20T16:55:58.780Z,14.90
2019-05-20T16:58:27.344Z,14.80
2019-05-20T17:00:55.925Z,14.90
2019-05-20T17:03:24.529Z,15.00
2019-05-20T17:05:53.158Z,15.20
2019-05-20T17:08:21.730Z,15.40
2019-05-20T17:10:50.404Z,15.60
2019-05-20T17:13:19.018Z,15.70
2019-05-20T17:15:47.683Z,15.80
2019-05-20T17:18:16.248Z,15.80
2019-05-20T17:20:46.288Z,15.80
2019-05-20T17:23:15.264Z,15.80
2019-05-20T17:25:43.913Z,15.60
2019-05-20T17:28:14.302Z,15.70
2019-05-20T17:30:45.770Z,15.70
2019-05-20T17:33:13.556Z,15.60
2019-05-20T17:35:42.147Z,15.40
2019-05-20T17:38:11.261Z,15.30
2019-05-20T17:40:39.909Z,15.30
2019-05-20T17:43:08.638Z,15.30
2019-05-20T17:45:37.642Z,15.30
2019-05-20T17:48:06.367Z,15.50
2019-05-20T17:50:35.022Z,15.60
2019-05-20T17:53:03.692Z,15.90
2019-05-20T17:55:32.297Z,16.10
2019-05-20T17:58:00.908Z,16.20
2019-05-20T18:00:29.865Z,16.40
2019-05-20T18:02:58.681Z,16.60
2019-05-20T18:05:27.483Z,16.60
2019-05-20T18:07:55.974Z,16.50
2019-05-20T18:10:25.351Z,16.30
2019-05-20T18:12:54.045Z,16.20
2019-05-20T18:15:22.774Z,16.00
2019-05-20T18:17:51.416Z,15.90
2019-05-20T18:20:20.194Z,15.80
2019-05-20T18:22:48.789Z,15.70
2019-05-20T18:25:17.451Z,15.70
2019-05-20T18:27:46.139Z,15.50
2019-05-20T18:30:15.178Z,15.40
2019-05-20T18:32:43.760Z,15.20
2019-05-20T18:35:12.794Z,15.10
2019-05-20T18:37:41.855Z,15.00
2019-05-20T18:40:14.529Z,14.80
2019-05-20T18:42:41.498Z,14.70
2019-05-20T18:45:10.328Z,14.50
2019-05-20T18:47:38.867Z,14.50
2019-05-20T18:50:08.088Z,14.40
2019-05-20T18:52:36.752Z,14.30
2019-05-20T18:55:06.552Z,14.20
2019-05-20T18:57:35.209Z,14.10
2019-05-20T19:00:08.675Z,14.00
2019-05-20T19:02:37.264Z,13.90
2019-05-20T19:05:07.646Z,13.90
2019-05-20T19:07:36.360Z,13.70
2019-05-20T19:10:06.496Z,13.70
2019-05-20T19:12:35.591Z,13.60
2019-05-20T19:15:05.924Z,13.50
2019-05-20T19:17:34.690Z,13.40
2019-05-20T19:20:03.726Z,13.30
2019-05-20T19:22:32.318Z,13.20
2019-05-20T19:25:01.410Z,13.10
2019-05-20T19:27:30.668Z,13.00
2019-05-20T19:29:59.237Z,13.00
2019-05-20T19:32:28.109Z,12.90
2019-05-20T19:34:56.611Z,12.80
2019-05-20T19:37:25.563Z,12.70
2019-05-20T19:39:54.219Z,12.60
2019-05-20T19:42:23.076Z,12.50
2019-05-20T19:44:51.705Z,12.40
2019-05-20T19:47:20.346Z,12.30
2019-05-20T19:49:48.958Z,12.20
2019-05-20T19:52:17.594Z,12.10
2019-05-20T19:54:46.508Z,12.00
2019-05-20T19:57:15.158Z,11.90
2019-05-20T19:59:44.091Z,11.80
2019-05-20T20:02:17.628Z,11.70
2019-05-20T20:04:43.061Z,11.60
2019-05-20T20:07:11.658Z,11.50
2019-05-20T20:09:40.314Z,11.40
2019-05-20T20:12:08.892Z,11.30
2019-05-20T20:14:37.515Z,11.20
2019-05-20T20:17:06.074Z,11.10
2019-05-20T20:19:34.661Z,11.00
2019-05-20T20:22:03.629Z,11.00
2019-05-20T20:24:32.194Z,10.90
2019-05-20T20:27:00.961Z,10.80
2019-05-20T20:29:29.552Z,10.70
2019-05-20T20:31:58.214Z,10.70
2019-05-20T20:34:30.450Z,10.60
2019-05-20T20:36:57.628Z,10.50
2019-05-20T20:39:26.230Z,10.40
2019-05-20T20:41:54.824Z,10.40
2019-05-20T20:44:23.793Z,10.30
2019-05-20T20:46:52.392Z,10.20
2019-05-20T20:49:21.057Z,10.20
2019-05-20T20:51:49.693Z,10.10
2019-05-20T20:54:18.373Z,10.10
2019-05-20T20:56:46.965Z,10.00
2019-05-20T20:59:15.583Z,10.00
2019-05-20T21:01:44.618Z,10.00
2019-05-20T21:04:13.282Z,10.00
2019-05-20T21:06:41.938Z,10.00
2019-05-20T21:09:10.628Z,10.00
2019-05-20T21:11:39.212Z,10.00
2019-05-20T21:14:07.830Z,10.10
2019-05-20T21:16:36.426Z,10.20
2019-05-20T21:19:05.445Z,10.20
2019-05-20T21:21:34.086Z,10.30
2019-05-20T21:24:02.760Z,10.30
2019-05-20T21:26:31.351Z,10.40
2019-05-20T21:28:59.997Z,10.40
2019-05-20T21:31:28.589Z,10.40
2019-05-20T21:33:57.173Z,10.50
2019-05-20T21:36:25.745Z,10.50
2019-05-20T21:38:54.336Z,10.60
2019-05-20T21:41:22.982Z,10.60
2019-05-20T21:43:51.533Z,10.60
2019-05-20T21:46:20.204Z,10.70
2019-05-20T21:48:48.776Z,10.70
2019-05-20T21:51:17.370Z,10.80
2019-05-20T21:53:45.948Z,10.80
2019-05-20T21:56:14.556Z,10.80
2019-05-20T21:58:43.979Z,10.90
2019-05-20T22:01:13.070Z,10.90
2019-05-20T22:03:42.123Z,10.90
2019-05-20T22:06:10.790Z,10.90
2019-05-20T22:08:39.435Z,11.00
2019-05-20T22:11:08.022Z,11.00
2019-05-20T22:13:36.610Z,11.10
2019-05-20T22:16:05.510Z,11.10
2019-05-20T22:18:34.097Z,11.10
2019-05-20T22:21:03.017Z,11.10
2019-05-20T22:23:33.313Z,11.20
2019-05-20T22:26:01.896Z,11.20
2019-05-20T22:28:30.471Z,11.20
2019-05-20T22:30:59.129Z,11.20
2019-05-20T22:33:40.213Z,11.30
2019-05-20T22:35:58.070Z,11.30
2019-05-20T22:38:26.759Z,11.30
2019-05-20T22:40:55.416Z,11.30
2019-05-20T22:43:24.008Z,11.30
2019-05-20T22:45:53.129Z,11.30
2019-05-20T22:48:21.836Z,11.30
2019-05-20T22:50:50.489Z,11.30
2019-05-20T22:53:19.069Z,11.30
2019-05-20T22:55:47.668Z,11.20
2019-05-20T22:58:16.239Z,11.20
2019-05-20T23:00:44.833Z,11.20
2019-05-20T23:03:13.398Z,11.20
2019-05-20T23:05:42.309Z,11.10
2019-05-20T23:08:10.971Z,11.10
2019-05-20T23:10:39.615Z,11.10
2019-05-20T23:13:08.290Z,11.10
2019-05-20T23:15:36.922Z,11.10
2019-05-20T23:18:05.647Z,11.20
2019-05-20T23:20:34.213Z,11.20
2019-05-20T23:23:02.814Z,11.10
2019-05-20T23:25:32.134Z,11.20
2019-05-20T23:28:00.789Z,11.20
2019-05-20T23:30:29.362Z,11.10
2019-05-20T23:32:57.958Z,11.10
2019-05-20T23:35:26.904Z,11.10
2019-05-20T23:37:55.553Z,11.10
2019-05-20T23:40:24.482Z,11.10
2019-05-20T23:42:53.062Z,11.00
2019-05-20T23:45:21.634Z,11.00
2019-05-20T23:47:50.592Z,11.00
2019-05-20T23:50:19.281Z,11.00
2019-05-20T23:52:47.937Z,11.00
2019-05-20T23:55:16.633Z,11.10
2019-05-20T23:57:45.243Z,11.10
